Time;durP1;ratioP1;P1;durP2;ratioP2;P2;SDS_P1;SDS_P2;PMS_P1;PMS_P2;Temp;Humidity;BMP_temperature;BMP_pressure;BME280_temperature;BME280_humidity;BME280_pressure;Samples;Min_cycle;Max_cycle;Signal;HPM_P1;HPM_P2
2022/08/01 00:00:03;;;;;;;;;;;16.80;99.90;;;;;;4595680;19;19974;-32
2022/08/01 00:01:54;;;;;;;;;;;16.80;99.90;;;;;;4594869;19;19915;-33
2022/08/01 00:03:25;;;;;;;;;;;16.80;99.90;;;;;;4594700;19;19915;-32
2022/08/01 00:04:56;;;;;;;;;;;16.80;99.90;;;;;;4594678;19;20384;-32
2022/08/01 00:06:27;;;;;;;;;;;16.80;99.90;;;;;;4594393;19;19922;-33
2022/08/01 00:07:58;;;;;;;;;;;16.80;99.90;;;;;;4594582;19;20332;-33
2022/08/01 00:09:29;;;;;;;;;;;16.80;99.90;;;;;;4593265;19;19927;-32
2022/08/01 00:11:00;;;;;;;;;;;16.80;99.90;;;;;;4593325;19;19910;-34
2022/08/01 00:12:31;;;;;;;;;;;16.80;99.90;;;;;;4594635;19;19937;-34
2022/08/01 00:14:02;;;;;;;;;;;16.80;99.90;;;;;;4594502;19;19973;-32
2022/08/01 00:15:34;;;;;;;;;;;16.80;99.90;;;;;;4594719;19;19932;-33
2022/08/01 00:17:05;;;;;;;;;;;16.80;99.90;;;;;;4593396;19;19926;-33
2022/08/01 00:18:36;;;;;;;;;;;16.80;99.90;;;;;;4593601;19;19974;-32
2022/08/01 00:20:08;;;;;;;;;;;16.80;99.90;;;;;;4593375;19;19933;-32
2022/08/01 00:21:39;;;;;;;;;;;16.70;99.90;;;;;;4592976;19;19938;-33
2022/08/01 00:23:10;;;;;;;;;;;16.70;99.90;;;;;;4593873;19;19923;-31
2022/08/01 00:24:41;;;;;;;;;;;16.70;99.90;;;;;;4594320;19;19918;-32
2022/08/01 00:26:12;;;;;;;;;;;16.70;99.90;;;;;;4592684;19;19915;-32
2022/08/01 00:27:43;;;;;;;;;;;16.70;99.90;;;;;;4593957;19;19923;-33
2022/08/01 00:29:14;;;;;;;;;;;16.70;99.90;;;;;;4593393;19;20258;-31
2022/08/01 00:30:45;;;;;;;;;;;16.70;99.90;;;;;;4593888;19;19988;-33
2022/08/01 00:32:16;;;;;;;;;;;16.70;99.90;;;;;;4594008;19;19918;-32
2022/08/01 00:33:47;;;;;;;;;;;16.70;99.90;;;;;;4593029;19;19971;-32
2022/08/01 00:35:18;;;;;;;;;;;16.70;99.90;;;;;;4593930;19;19918;-34
2022/08/01 00:36:49;;;;;;;;;;;16.70;99.90;;;;;;4592076;19;19979;-33
2022/08/01 00:38:20;;;;;;;;;;;16.70;99.90;;;;;;4593880;19;20238;-32
2022/08/01 00:39:51;;;;;;;;;;;16.70;99.90;;;;;;4593854;19;19915;-32
2022/08/01 00:41:22;;;;;;;;;;;16.70;99.90;;;;;;4593928;19;19919;-33
2022/08/01 00:42:53;;;;;;;;;;;16.60;99.90;;;;;;4593924;19;19926;-34
2022/08/01 00:44:24;;;;;;;;;;;16.70;99.90;;;;;;4593983;19;19922;-33
2022/08/01 00:45:55;;;;;;;;;;;16.70;99.90;;;;;;4594073;19;19921;-32
2022/08/01 00:47:25;;;;;;;;;;;16.60;99.90;;;;;;4593390;19;19915;-33
2022/08/01 00:48:57;;;;;;;;;;;16.60;99.90;;;;;;4592529;19;19978;-34
2022/08/01 00:50:28;;;;;;;;;;;16.70;99.90;;;;;;4590938;19;19918;-32
2022/08/01 00:51:59;;;;;;;;;;;16.60;99.90;;;;;;4593561;19;19919;-32
2022/08/01 00:53:29;;;;;;;;;;;16.60;99.90;;;;;;4592485;19;19915;-32
2022/08/01 00:55:01;;;;;;;;;;;16.60;99.90;;;;;;4593608;19;19946;-32
2022/08/01 00:56:32;;;;;;;;;;;16.70;99.90;;;;;;4594140;19;19919;-32
2022/08/01 00:58:02;;;;;;;;;;;16.60;99.90;;;;;;4592581;19;19922;-34
2022/08/01 00:59:33;;;;;;;;;;;16.60;99.90;;;;;;4592491;19;20286;-34
2022/08/01 01:01:05;;;;;;;;;;;16.60;99.90;;;;;;4593534;19;19923;-32
2022/08/01 01:02:36;;;;;;;;;;;16.60;99.90;;;;;;4594121;19;19918;-34
2022/08/01 01:04:07;;;;;;;;;;;16.60;99.90;;;;;;4593194;19;19924;-32
2022/08/01 01:05:43;;;;;;;;;;;16.60;99.90;;;;;;4592538;19;19930;-32
2022/08/01 01:07:17;;;;;;;;;;;16.60;99.90;;;;;;4592648;19;20316;-33
2022/08/01 01:08:57;;;;;;;;;;;16.60;99.90;;;;;;4592522;19;19917;-32
2022/08/01 01:10:43;;;;;;;;;;;16.60;99.90;;;;;;4592363;19;19992;-33
2022/08/01 01:12:32;;;;;;;;;;;16.60;99.90;;;;;;4592054;19;19937;-31
2022/08/01 01:14:10;;;;;;;;;;;16.60;99.90;;;;;;4592940;19;19915;-33
2022/08/01 01:15:41;;;;;;;;;;;16.60;99.90;;;;;;4591985;19;19911;-32
2022/08/01 01:17:14;;;;;;;;;;;16.60;99.90;;;;;;4593254;19;19915;-33
2022/08/01 01:18:51;;;;;;;;;;;16.60;99.90;;;;;;4593037;19;20013;-33
2022/08/01 01:20:24;;;;;;;;;;;16.50;99.90;;;;;;4592107;19;19935;-33
2022/08/01 01:22:00;;;;;;;;;;;16.50;99.90;;;;;;4591908;19;19979;-34
2022/08/01 01:23:44;;;;;;;;;;;16.50;99.90;;;;;;4592646;19;19918;-31
2022/08/01 01:25:33;;;;;;;;;;;16.50;99.90;;;;;;4593299;19;19918;-33
2022/08/01 01:27:07;;;;;;;;;;;16.60;99.90;;;;;;4591690;19;19986;-33
2022/08/01 01:28:57;;;;;;;;;;;16.50;99.90;;;;;;4592070;19;19922;-31
2022/08/01 01:30:28;;;;;;;;;;;16.60;99.90;;;;;;4593257;19;20300;-34
2022/08/01 01:32:02;;;;;;;;;;;16.50;99.90;;;;;;4592080;19;19911;-31
2022/08/01 01:33:34;;;;;;;;;;;16.50;99.90;;;;;;4592988;19;19974;-33
2022/08/01 01:35:06;;;;;;;;;;;16.50;99.90;;;;;;4592681;19;19921;-33
2022/08/01 01:36:37;;;;;;;;;;;16.50;99.90;;;;;;4593210;19;19918;-32
2022/08/01 01:38:09;;;;;;;;;;;16.50;99.90;;;;;;4591180;19;20336;-32
2022/08/01 01:39:40;;;;;;;;;;;16.50;99.90;;;;;;4592411;19;20242;-33
2022/08/01 01:41:11;;;;;;;;;;;16.50;99.90;;;;;;4592229;19;19926;-33
2022/08/01 01:42:42;;;;;;;;;;;16.50;99.90;;;;;;4592089;19;19926;-32
2022/08/01 01:44:13;;;;;;;;;;;16.40;99.90;;;;;;4592988;19;19915;-32
2022/08/01 01:45:44;;;;;;;;;;;16.40;99.90;;;;;;4591012;19;19918;-34
2022/08/01 01:47:16;;;;;;;;;;;16.40;99.90;;;;;;4592393;19;20075;-32
2022/08/01 01:48:47;;;;;;;;;;;16.40;99.90;;;;;;4592241;19;19929;-32
2022/08/01 01:50:20;;;;;;;;;;;16.50;99.90;;;;;;4591684;19;19922;-32
2022/08/01 01:51:51;;;;;;;;;;;16.40;99.90;;;;;;4591579;19;19919;-32
2022/08/01 01:53:22;;;;;;;;;;;16.40;99.90;;;;;;4591405;19;19915;-34
2022/08/01 01:54:53;;;;;;;;;;;16.40;99.90;;;;;;4591951;19;19930;-32
2022/08/01 01:56:24;;;;;;;;;;;16.40;99.90;;;;;;4592395;19;19914;-34
2022/08/01 01:57:55;;;;;;;;;;;16.40;99.90;;;;;;4591352;19;19974;-34
2022/08/01 01:59:27;;;;;;;;;;;16.40;99.90;;;;;;4591121;19;20273;-33
2022/08/01 02:00:58;;;;;;;;;;;16.40;99.90;;;;;;4591596;19;19934;-33
2022/08/01 02:02:29;;;;;;;;;;;16.40;99.90;;;;;;4591063;19;19915;-32
2022/08/01 02:04:02;;;;;;;;;;;16.40;99.90;;;;;;4591659;19;19915;-34
2022/08/01 02:05:34;;;;;;;;;;;16.40;99.90;;;;;;4591423;19;19915;-33
2022/08/01 02:07:05;;;;;;;;;;;16.40;99.90;;;;;;4591143;19;20075;-33
2022/08/01 02:08:36;;;;;;;;;;;16.40;99.90;;;;;;4590372;19;19919;-32
2022/08/01 02:10:08;;;;;;;;;;;16.40;99.90;;;;;;4591271;19;19941;-32
2022/08/01 02:11:39;;;;;;;;;;;16.40;99.90;;;;;;4590270;19;19922;-32
2022/08/01 02:13:10;;;;;;;;;;;16.40;99.90;;;;;;4592283;19;19922;-32
2022/08/01 02:14:41;;;;;;;;;;;16.40;99.90;;;;;;4589656;19;19919;-32
2022/08/01 02:16:13;;;;;;;;;;;16.40;99.90;;;;;;4590277;19;20378;-32
2022/08/01 02:17:46;;;;;;;;;;;16.30;99.90;;;;;;4590540;19;19970;-32
2022/08/01 02:19:17;;;;;;;;;;;16.30;99.90;;;;;;4591973;19;19923;-32
2022/08/01 02:20:48;;;;;;;;;;;16.30;99.90;;;;;;4592067;19;19922;-32
2022/08/01 02:22:21;;;;;;;;;;;16.30;99.90;;;;;;4591726;19;19974;-32
2022/08/01 02:23:52;;;;;;;;;;;16.30;99.90;;;;;;4590807;19;20265;-32
2022/08/01 02:25:24;;;;;;;;;;;16.30;99.90;;;;;;4590454;19;19917;-33
2022/08/01 02:26:54;;;;;;;;;;;16.30;99.90;;;;;;4590563;19;20250;-32
2022/08/01 02:28:29;;;;;;;;;;;16.30;99.90;;;;;;4590905;19;19911;-33
2022/08/01 02:30:04;;;;;;;;;;;16.30;99.90;;;;;;4591039;19;19962;-32
2022/08/01 02:31:37;;;;;;;;;;;16.30;99.90;;;;;;4591213;19;19915;-34
2022/08/01 02:33:09;;;;;;;;;;;16.30;99.90;;;;;;4591692;19;19922;-32
2022/08/01 02:34:40;;;;;;;;;;;16.30;99.90;;;;;;4591576;19;19987;-33
2022/08/01 02:36:11;;;;;;;;;;;16.30;99.90;;;;;;4590960;19;19911;-32
2022/08/01 02:37:42;;;;;;;;;;;16.30;99.90;;;;;;4590252;19;19984;-33
2022/08/01 02:39:14;;;;;;;;;;;16.30;99.90;;;;;;4591365;19;19934;-32
2022/08/01 02:40:45;;;;;;;;;;;16.30;99.90;;;;;;4590216;19;19922;-34
2022/08/01 02:42:16;;;;;;;;;;;16.20;99.90;;;;;;4591793;19;19966;-32
2022/08/01 02:43:48;;;;;;;;;;;16.20;99.90;;;;;;4590328;19;19929;-32
2022/08/01 02:45:19;;;;;;;;;;;16.30;99.90;;;;;;4590242;19;19919;-33
2022/08/01 02:46:51;;;;;;;;;;;16.20;99.90;;;;;;4590278;19;19921;-33
2022/08/01 02:48:22;;;;;;;;;;;16.20;99.90;;;;;;4589831;19;20380;-32
2022/08/01 02:49:53;;;;;;;;;;;16.20;99.90;;;;;;4588863;19;19919;-33
2022/08/01 02:51:24;;;;;;;;;;;16.20;99.90;;;;;;4587664;19;19950;-32
2022/08/01 02:52:55;;;;;;;;;;;16.20;99.90;;;;;;4589969;19;20300;-33
2022/08/01 02:54:26;;;;;;;;;;;16.20;99.90;;;;;;4588988;19;19923;-32
2022/08/01 02:55:57;;;;;;;;;;;16.20;99.90;;;;;;4589696;19;20245;-33
2022/08/01 02:57:28;;;;;;;;;;;16.20;99.90;;;;;;4589496;19;19926;-32
2022/08/01 02:58:59;;;;;;;;;;;16.20;99.90;;;;;;4590428;19;19974;-32
2022/08/01 03:00:30;;;;;;;;;;;16.20;99.90;;;;;;4589027;19;19926;-32
2022/08/01 03:02:01;;;;;;;;;;;16.20;99.90;;;;;;4588776;19;19921;-33
2022/08/01 03:03:32;;;;;;;;;;;16.20;99.90;;;;;;4589596;19;19915;-32
2022/08/01 03:05:03;;;;;;;;;;;16.20;99.90;;;;;;4589463;19;19970;-32
2022/08/01 03:06:34;;;;;;;;;;;16.20;99.90;;;;;;4588768;19;20321;-33
2022/08/01 03:08:06;;;;;;;;;;;16.20;99.90;;;;;;4588275;19;19918;-33
2022/08/01 03:09:42;;;;;;;;;;;16.20;99.90;;;;;;4589790;19;19966;-32
2022/08/01 03:11:13;;;;;;;;;;;16.20;99.90;;;;;;4588622;19;20325;-33
2022/08/01 03:12:44;;;;;;;;;;;16.20;99.90;;;;;;4588676;19;19915;-32
2022/08/01 03:14:15;;;;;;;;;;;16.20;99.90;;;;;;4589478;19;19915;-32
2022/08/01 03:15:46;;;;;;;;;;;16.20;99.90;;;;;;4590062;19;19914;-34
2022/08/01 03:17:18;;;;;;;;;;;16.20;99.90;;;;;;4588373;19;19967;-34
2022/08/01 03:18:49;;;;;;;;;;;16.20;99.90;;;;;;4589577;19;19915;-32
2022/08/01 03:20:20;;;;;;;;;;;16.20;99.90;;;;;;4588625;19;20000;-32
2022/08/01 03:21:51;;;;;;;;;;;16.20;99.90;;;;;;4588999;19;19932;-34
2022/08/01 03:23:23;;;;;;;;;;;16.20;99.90;;;;;;4590318;19;19991;-34
2022/08/01 03:24:53;;;;;;;;;;;16.20;99.90;;;;;;4593319;19;19922;-34
2022/08/01 03:26:26;;;;;;;;;;;16.20;99.90;;;;;;4592918;19;19921;-33
2022/08/01 03:27:58;;;;;;;;;;;16.20;99.90;;;;;;4592724;19;19910;-33
2022/08/01 03:29:29;;;;;;;;;;;16.20;99.90;;;;;;4591869;19;20347;-33
2022/08/01 03:31:00;;;;;;;;;;;16.20;99.90;;;;;;4592755;19;19914;-32
2022/08/01 03:32:31;;;;;;;;;;;16.20;99.90;;;;;;4593233;19;19942;-32
2022/08/01 03:34:02;;;;;;;;;;;16.20;99.90;;;;;;4593501;19;19917;-33
2022/08/01 03:35:35;;;;;;;;;;;16.20;99.90;;;;;;4592369;19;19919;-32
2022/08/01 03:37:07;;;;;;;;;;;16.20;99.90;;;;;;4592719;19;19922;-32
2022/08/01 03:38:38;;;;;;;;;;;16.20;99.90;;;;;;4593369;19;19915;-32
2022/08/01 03:40:20;;;;;;;;;;;16.20;99.90;;;;;;4592264;19;20260;-33
2022/08/01 03:41:53;;;;;;;;;;;16.20;99.90;;;;;;4593342;19;19919;-33
2022/08/01 03:43:43;;;;;;;;;;;16.20;99.90;;;;;;4592376;19;19915;-32
2022/08/01 03:45:37;;;;;;;;;;;16.20;99.90;;;;;;4592661;19;19919;-32
2022/08/01 03:47:08;;;;;;;;;;;16.20;99.90;;;;;;4594069;19;19919;-33
2022/08/01 03:48:40;;;;;;;;;;;16.20;99.90;;;;;;4591327;19;19998;-31
2022/08/01 03:50:11;;;;;;;;;;;16.20;99.90;;;;;;4395437;19;3829351;-33
2022/08/01 03:51:44;;;;;;;;;;;16.20;99.90;;;;;;4594525;19;20246;-32
2022/08/01 03:53:16;;;;;;;;;;;16.20;99.90;;;;;;4594059;19;19966;-32
2022/08/01 03:54:47;;;;;;;;;;;16.20;99.90;;;;;;4593782;19;20360;-33
2022/08/01 03:56:19;;;;;;;;;;;16.20;99.90;;;;;;4594552;19;19935;-32
2022/08/01 03:57:50;;;;;;;;;;;16.20;99.90;;;;;;4594964;19;19927;-32
2022/08/01 03:59:21;;;;;;;;;;;16.30;99.90;;;;;;4595042;19;19936;-34
2022/08/01 04:00:52;;;;;;;;;;;16.20;99.90;;;;;;4594718;19;19922;-32
2022/08/01 04:02:23;;;;;;;;;;;16.20;99.90;;;;;;4593446;19;19923;-32
2022/08/01 04:03:54;;;;;;;;;;;16.20;99.90;;;;;;4594045;19;19923;-31
2022/08/01 04:05:25;;;;;;;;;;;16.20;99.90;;;;;;4594376;19;19961;-32
2022/08/01 04:06:56;;;;;;;;;;;16.30;99.90;;;;;;4594847;19;19915;-32
2022/08/01 04:08:34;;;;;;;;;;;16.30;99.90;;;;;;4594479;19;19919;-32
2022/08/01 04:10:05;;;;;;;;;;;16.30;99.90;;;;;;4594991;19;19911;-32
2022/08/01 04:11:36;;;;;;;;;;;16.30;99.90;;;;;;4594502;19;19982;-33
2022/08/01 04:13:07;;;;;;;;;;;16.30;99.90;;;;;;4593533;19;19914;-32
2022/08/01 04:14:38;;;;;;;;;;;16.30;99.90;;;;;;4594088;19;19944;-33
2022/08/01 04:16:09;;;;;;;;;;;16.30;99.90;;;;;;4595026;19;19911;-33
2022/08/01 04:17:40;;;;;;;;;;;16.30;99.90;;;;;;4594429;19;19978;-34
2022/08/01 04:19:11;;;;;;;;;;;16.30;99.90;;;;;;4594457;19;19915;-32
2022/08/01 04:20:41;;;;;;;;;;;16.40;99.90;;;;;;4594751;19;19922;-33
2022/08/01 04:22:15;;;;;;;;;;;16.40;99.90;;;;;;4594529;19;20268;-33
2022/08/01 04:23:46;;;;;;;;;;;16.40;99.90;;;;;;4594355;19;19952;-33
2022/08/01 04:25:25;;;;;;;;;;;16.40;99.90;;;;;;4593428;19;19915;-33
2022/08/01 04:26:56;;;;;;;;;;;16.40;99.90;;;;;;4593399;19;19915;-32
2022/08/01 04:28:27;;;;;;;;;;;16.40;99.90;;;;;;4593331;19;19928;-33
2022/08/01 04:29:58;;;;;;;;;;;16.40;99.90;;;;;;4593862;19;19926;-34
2022/08/01 04:31:29;;;;;;;;;;;16.50;99.90;;;;;;4594207;19;19919;-33
2022/08/01 04:33:00;;;;;;;;;;;16.50;99.90;;;;;;4594764;19;20313;-33
2022/08/01 04:34:32;;;;;;;;;;;16.50;99.90;;;;;;4593052;19;19907;-33
2022/08/01 04:36:04;;;;;;;;;;;16.50;99.90;;;;;;4593227;19;20002;-33
2022/08/01 04:37:36;;;;;;;;;;;16.50;99.90;;;;;;4593075;19;19914;-33
2022/08/01 04:39:07;;;;;;;;;;;16.50;99.90;;;;;;4593015;19;19938;-33
2022/08/01 04:40:39;;;;;;;;;;;16.60;99.90;;;;;;4592831;19;20017;-34
2022/08/01 04:42:10;;;;;;;;;;;16.60;99.90;;;;;;4593310;19;19910;-33
2022/08/01 04:43:41;;;;;;;;;;;16.60;99.90;;;;;;4592762;19;19915;-33
2022/08/01 04:45:12;;;;;;;;;;;16.60;99.90;;;;;;4593052;19;19922;-33
2022/08/01 04:46:43;;;;;;;;;;;16.60;99.90;;;;;;4593300;19;19918;-33
2022/08/01 04:48:15;;;;;;;;;;;16.60;99.90;;;;;;4592769;19;19926;-32
2022/08/01 04:49:46;;;;;;;;;;;16.70;99.90;;;;;;4591998;19;19996;-33
2022/08/01 04:51:17;;;;;;;;;;;16.70;99.90;;;;;;4591759;19;19929;-32
2022/08/01 04:52:51;;;;;;;;;;;16.70;99.90;;;;;;4593425;19;19918;-32
2022/08/01 04:54:23;;;;;;;;;;;16.70;99.90;;;;;;4593929;19;19931;-33
2022/08/01 04:55:55;;;;;;;;;;;16.80;99.90;;;;;;4594346;19;19922;-32
2022/08/01 04:57:26;;;;;;;;;;;16.80;99.90;;;;;;4593440;19;19919;-32
2022/08/01 05:00:46;;;;;;;;;;;16.80;99.90;;;;;;4593801;19;20422;-34
2022/08/01 05:02:18;;;;;;;;;;;16.80;99.90;;;;;;4593874;19;19947;-34
2022/08/01 05:03:48;;;;;;;;;;;16.80;99.90;;;;;;4592173;19;20257;-34
2022/08/01 05:05:20;;;;;;;;;;;16.90;99.90;;;;;;4593104;19;20229;-32
2022/08/01 05:06:51;;;;;;;;;;;16.90;99.90;;;;;;4592677;19;19970;-33
2022/08/01 05:08:22;;;;;;;;;;;16.90;99.90;;;;;;4593719;19;19918;-33
2022/08/01 05:09:53;;;;;;;;;;;16.90;99.90;;;;;;4593381;19;19934;-33
2022/08/01 05:11:24;;;;;;;;;;;16.90;99.90;;;;;;4593608;19;19922;-33
2022/08/01 05:12:55;;;;;;;;;;;16.90;99.90;;;;;;4593060;19;20343;-33
2022/08/01 05:14:27;;;;;;;;;;;17.00;99.90;;;;;;4593477;19;20246;-32
2022/08/01 05:15:58;;;;;;;;;;;17.00;99.90;;;;;;4592525;19;19915;-33
2022/08/01 05:17:29;;;;;;;;;;;17.00;99.90;;;;;;4593702;19;20329;-32
2022/08/01 05:19:00;;;;;;;;;;;17.00;99.90;;;;;;4593678;19;19923;-31
2022/08/01 05:20:34;;;;;;;;;;;17.00;99.90;;;;;;4593782;19;19922;-33
2022/08/01 05:22:06;;;;;;;;;;;17.10;99.90;;;;;;4590829;19;20342;-32
2022/08/01 05:23:37;;;;;;;;;;;17.10;99.90;;;;;;4591318;19;19926;-34
2022/08/01 05:25:08;;;;;;;;;;;17.10;99.90;;;;;;4592379;19;19918;-33
2022/08/01 05:26:39;;;;;;;;;;;17.20;99.90;;;;;;4593273;19;20360;-34
2022/08/01 05:28:10;;;;;;;;;;;17.20;99.90;;;;;;4591617;19;20306;-33
2022/08/01 05:29:41;;;;;;;;;;;17.20;99.90;;;;;;4592609;19;19919;-33
2022/08/01 05:31:12;;;;;;;;;;;17.20;99.90;;;;;;4593409;19;19983;-32
2022/08/01 05:32:43;;;;;;;;;;;17.30;99.90;;;;;;4592901;19;19926;-34
2022/08/01 05:34:14;;;;;;;;;;;17.30;99.90;;;;;;4593285;19;19922;-32
2022/08/01 05:35:45;;;;;;;;;;;17.30;99.90;;;;;;4592714;19;20487;-33
2022/08/01 05:37:16;;;;;;;;;;;17.30;99.90;;;;;;4592420;19;19918;-32
2022/08/01 05:38:47;;;;;;;;;;;17.40;99.90;;;;;;4591721;19;20255;-33
2022/08/01 05:40:18;;;;;;;;;;;17.40;99.90;;;;;;4592744;19;19915;-33
2022/08/01 05:41:49;;;;;;;;;;;17.40;99.90;;;;;;4593346;19;20236;-34
2022/08/01 05:43:20;;;;;;;;;;;17.40;99.90;;;;;;4592514;19;19936;-35
2022/08/01 05:44:51;;;;;;;;;;;17.40;99.90;;;;;;4593088;19;19915;-32
2022/08/01 05:46:22;;;;;;;;;;;17.40;99.90;;;;;;4591125;19;19919;-32
2022/08/01 05:47:53;;;;;;;;;;;17.50;99.90;;;;;;4591772;19;19929;-32
2022/08/01 05:49:24;;;;;;;;;;;17.50;99.90;;;;;;4590709;19;19933;-32
2022/08/01 05:50:55;;;;;;;;;;;17.50;99.90;;;;;;4591559;19;19911;-32
2022/08/01 05:52:26;;;;;;;;;;;17.60;99.90;;;;;;4592686;19;20331;-33
2022/08/01 05:53:57;;;;;;;;;;;17.60;99.90;;;;;;4591380;19;20367;-32
2022/08/01 05:55:28;;;;;;;;;;;17.60;99.90;;;;;;4592024;19;19926;-33
2022/08/01 05:57:01;;;;;;;;;;;17.60;99.90;;;;;;4591862;19;19919;-33
2022/08/01 05:58:32;;;;;;;;;;;17.60;99.90;;;;;;4592266;19;19919;-33
2022/08/01 06:00:03;;;;;;;;;;;17.60;99.90;;;;;;4593255;19;20334;-32
2022/08/01 06:01:34;;;;;;;;;;;17.60;99.90;;;;;;4592540;19;19931;-34
2022/08/01 06:03:05;;;;;;;;;;;17.70;99.90;;;;;;4592726;19;19911;-34
2022/08/01 06:04:36;;;;;;;;;;;17.70;99.90;;;;;;4590954;19;19914;-34
2022/08/01 06:06:07;;;;;;;;;;;17.70;99.90;;;;;;4590732;19;19918;-31
2022/08/01 06:07:39;;;;;;;;;;;17.70;99.90;;;;;;4591768;19;19922;-33
2022/08/01 06:09:10;;;;;;;;;;;17.70;99.90;;;;;;4591727;19;19918;-33
2022/08/01 06:10:41;;;;;;;;;;;17.80;99.90;;;;;;4592368;19;19922;-33
2022/08/01 06:12:12;;;;;;;;;;;17.80;99.90;;;;;;4591622;19;19918;-32
2022/08/01 06:13:43;;;;;;;;;;;17.80;99.90;;;;;;4592289;19;19938;-32
2022/08/01 06:15:14;;;;;;;;;;;17.80;99.90;;;;;;4593566;19;19925;-31
2022/08/01 06:16:45;;;;;;;;;;;17.80;99.90;;;;;;4592942;19;19910;-32
2022/08/01 06:18:15;;;;;;;;;;;17.90;99.90;;;;;;4593839;19;20252;-32
2022/08/01 06:19:47;;;;;;;;;;;17.90;99.90;;;;;;4591575;19;20377;-32
2022/08/01 06:21:20;;;;;;;;;;;17.90;99.90;;;;;;4592537;19;19915;-32
2022/08/01 06:22:51;;;;;;;;;;;17.90;99.90;;;;;;4594347;19;20371;-32
2022/08/01 06:24:23;;;;;;;;;;;17.90;99.90;;;;;;4592050;19;19932;-32
2022/08/01 06:25:54;;;;;;;;;;;17.90;99.90;;;;;;4593275;19;19971;-33
2022/08/01 06:27:25;;;;;;;;;;;18.00;99.90;;;;;;4591481;19;19915;-32
2022/08/01 06:28:56;;;;;;;;;;;18.00;99.90;;;;;;4589274;19;19932;-32
2022/08/01 06:30:27;;;;;;;;;;;18.00;99.90;;;;;;4591342;19;19911;-34
2022/08/01 06:31:59;;;;;;;;;;;18.00;99.90;;;;;;4591421;19;19933;-33
2022/08/01 06:33:30;;;;;;;;;;;18.00;99.90;;;;;;4591064;19;19966;-33
2022/08/01 06:35:01;;;;;;;;;;;18.10;99.90;;;;;;4592491;19;19923;-32
2022/08/01 06:36:32;;;;;;;;;;;18.10;99.90;;;;;;4592519;19;19919;-32
2022/08/01 06:38:03;;;;;;;;;;;18.10;99.90;;;;;;4593354;19;19941;-33
2022/08/01 06:39:34;;;;;;;;;;;18.10;99.90;;;;;;4592723;19;20337;-33
2022/08/01 06:41:05;;;;;;;;;;;18.10;99.90;;;;;;4592164;19;19927;-33
2022/08/01 06:42:36;;;;;;;;;;;18.10;99.90;;;;;;4590089;19;19923;-33
2022/08/01 06:44:07;;;;;;;;;;;18.10;99.90;;;;;;4590822;19;19911;-34
2022/08/01 06:45:39;;;;;;;;;;;18.20;99.90;;;;;;4590165;19;19919;-33
2022/08/01 06:47:09;;;;;;;;;;;18.20;99.90;;;;;;4591069;19;19918;-33
2022/08/01 06:48:40;;;;;;;;;;;18.20;99.90;;;;;;4591393;19;19935;-33
2022/08/01 06:50:13;;;;;;;;;;;18.20;99.90;;;;;;4590813;19;19919;-33
2022/08/01 06:51:44;;;;;;;;;;;18.20;99.90;;;;;;4591263;19;19946;-32
2022/08/01 06:53:15;;;;;;;;;;;18.20;99.90;;;;;;4591467;19;19915;-32
2022/08/01 06:54:46;;;;;;;;;;;18.20;99.90;;;;;;4592088;19;20324;-34
2022/08/01 06:56:17;;;;;;;;;;;18.20;99.90;;;;;;4591679;19;19928;-32
2022/08/01 06:57:49;;;;;;;;;;;18.20;99.90;;;;;;4587865;19;19922;-33
2022/08/01 06:59:20;;;;;;;;;;;18.30;99.90;;;;;;4588167;19;19919;-32
2022/08/01 07:00:51;;;;;;;;;;;18.30;99.90;;;;;;4590615;19;19982;-34
2022/08/01 07:02:22;;;;;;;;;;;18.30;99.90;;;;;;4588800;19;19982;-33
2022/08/01 07:03:53;;;;;;;;;;;18.30;99.90;;;;;;4589357;19;19922;-32
2022/08/01 07:05:24;;;;;;;;;;;18.30;99.90;;;;;;4588100;19;20372;-32
2022/08/01 07:06:55;;;;;;;;;;;18.30;99.90;;;;;;4589612;19;19929;-33
2022/08/01 07:08:26;;;;;;;;;;;18.30;99.90;;;;;;4590091;19;19919;-32
2022/08/01 07:09:57;;;;;;;;;;;18.40;99.90;;;;;;4590461;19;19914;-33
2022/08/01 07:11:28;;;;;;;;;;;18.40;99.90;;;;;;4591494;19;19974;-33
2022/08/01 07:12:59;;;;;;;;;;;18.40;99.90;;;;;;4591575;19;19937;-33
2022/08/01 07:14:30;;;;;;;;;;;18.40;99.90;;;;;;4590907;19;19985;-33
2022/08/01 07:16:01;;;;;;;;;;;18.40;99.90;;;;;;4590183;19;19934;-32
2022/08/01 07:17:32;;;;;;;;;;;18.40;99.90;;;;;;4590992;19;20011;-33
2022/08/01 07:19:03;;;;;;;;;;;18.40;99.90;;;;;;4590732;19;19942;-32
2022/08/01 07:20:35;;;;;;;;;;;18.40;99.90;;;;;;4590951;19;19919;-32
2022/08/01 07:22:05;;;;;;;;;;;18.40;99.90;;;;;;4589689;19;19943;-33
2022/08/01 07:23:36;;;;;;;;;;;18.40;99.90;;;;;;4589945;19;19922;-33
2022/08/01 07:25:07;;;;;;;;;;;18.50;99.90;;;;;;4590415;19;20264;-33
2022/08/01 07:26:39;;;;;;;;;;;18.50;99.90;;;;;;4591046;19;20332;-32
2022/08/01 07:28:10;;;;;;;;;;;18.50;99.90;;;;;;4591097;19;20317;-33
2022/08/01 07:29:41;;;;;;;;;;;18.50;99.90;;;;;;4590180;19;19919;-33
2022/08/01 07:31:12;;;;;;;;;;;18.50;99.90;;;;;;4590479;19;19915;-33
2022/08/01 07:32:43;;;;;;;;;;;18.50;99.90;;;;;;4589503;19;19915;-33
2022/08/01 07:34:14;;;;;;;;;;;18.60;99.90;;;;;;4590511;19;20338;-32
2022/08/01 07:35:45;;;;;;;;;;;18.60;99.90;;;;;;4589915;19;20341;-32
2022/08/01 07:37:16;;;;;;;;;;;18.70;99.90;;;;;;4593446;19;20325;-33
2022/08/01 07:38:47;;;;;;;;;;;18.20;99.90;;;;;;4590999;19;19925;-33
2022/08/01 07:40:18;;;;;;;;;;;18.20;99.90;;;;;;4590864;19;19914;-33
2022/08/01 07:41:49;;;;;;;;;;;18.00;99.90;;;;;;4591547;19;19919;-32
2022/08/01 07:43:20;;;;;;;;;;;18.30;99.90;;;;;;4589390;19;19911;-33
2022/08/01 07:44:51;;;;;;;;;;;18.60;99.90;;;;;;4590303;19;19932;-32
2022/08/01 07:46:22;;;;;;;;;;;18.60;99.90;;;;;;4591281;19;20313;-32
2022/08/01 07:47:55;;;;;;;;;;;18.60;99.90;;;;;;4589802;19;19923;-33
2022/08/01 07:49:25;;;;;;;;;;;18.80;99.90;;;;;;4589435;19;19915;-33
2022/08/01 07:50:57;;;;;;;;;;;18.70;99.90;;;;;;4589839;19;19917;-33
2022/08/01 07:52:27;;;;;;;;;;;18.70;99.90;;;;;;4590553;19;19918;-33
2022/08/01 07:53:58;;;;;;;;;;;18.70;99.90;;;;;;4589927;19;19948;-33
2022/08/01 07:55:29;;;;;;;;;;;18.70;99.90;;;;;;4588596;19;19921;-33
2022/08/01 07:57:01;;;;;;;;;;;18.70;99.90;;;;;;4590356;19;19918;-32
2022/08/01 07:58:32;;;;;;;;;;;18.70;99.90;;;;;;4588973;19;19911;-32
2022/08/01 08:00:03;;;;;;;;;;;18.70;99.90;;;;;;4588579;19;19929;-32
2022/08/01 08:01:34;;;;;;;;;;;18.70;99.90;;;;;;4587944;19;19918;-31
2022/08/01 08:03:05;;;;;;;;;;;18.60;99.90;;;;;;4589620;19;20343;-32
2022/08/01 08:04:36;;;;;;;;;;;18.70;99.90;;;;;;4589543;19;19922;-32
2022/08/01 08:06:07;;;;;;;;;;;18.70;99.90;;;;;;4587722;19;20353;-32
2022/08/01 08:07:38;;;;;;;;;;;18.80;99.90;;;;;;4589870;19;19925;-32
2022/08/01 08:09:10;;;;;;;;;;;18.80;99.90;;;;;;4587554;19;19985;-32
2022/08/01 08:10:42;;;;;;;;;;;18.90;99.90;;;;;;4592917;19;19917;-31
2022/08/01 08:12:13;;;;;;;;;;;18.90;99.90;;;;;;4594573;19;20352;-32
2022/08/01 08:13:43;;;;;;;;;;;18.80;99.90;;;;;;4594167;19;19914;-32
2022/08/01 08:15:15;;;;;;;;;;;19.00;99.90;;;;;;4594022;19;19914;-31
2022/08/01 08:16:46;;;;;;;;;;;19.00;99.90;;;;;;4593409;19;19918;-32
2022/08/01 08:18:16;;;;;;;;;;;19.10;99.90;;;;;;4593784;19;19915;-32
2022/08/01 08:19:47;;;;;;;;;;;19.10;99.90;;;;;;4595492;19;19915;-31
2022/08/01 08:21:19;;;;;;;;;;;19.10;99.90;;;;;;4595298;19;19926;-32
2022/08/01 08:22:50;;;;;;;;;;;19.10;99.90;;;;;;4596087;19;19918;-32
2022/08/01 08:24:21;;;;;;;;;;;19.10;99.90;;;;;;4596472;19;19919;-32
2022/08/01 08:25:52;;;;;;;;;;;19.30;99.90;;;;;;4596373;19;19993;-32
2022/08/01 08:27:23;;;;;;;;;;;19.30;99.90;;;;;;4595149;19;19925;-32
2022/08/01 08:28:54;;;;;;;;;;;19.30;99.90;;;;;;4594584;19;19932;-32
2022/08/01 08:30:25;;;;;;;;;;;19.40;99.90;;;;;;4592343;19;19926;-31
2022/08/01 08:31:56;;;;;;;;;;;19.50;99.90;;;;;;4594452;19;20340;-33
2022/08/01 08:33:27;;;;;;;;;;;19.40;99.90;;;;;;4592980;19;19919;-33
2022/08/01 08:34:58;;;;;;;;;;;19.40;99.90;;;;;;4593983;19;19914;-33
2022/08/01 08:36:29;;;;;;;;;;;19.50;99.90;;;;;;4594252;19;20337;-33
2022/08/01 08:38:00;;;;;;;;;;;19.40;99.90;;;;;;4593493;19;19922;-34
2022/08/01 08:39:31;;;;;;;;;;;19.50;99.90;;;;;;4593765;19;19915;-33
2022/08/01 08:41:02;;;;;;;;;;;19.50;99.90;;;;;;4593790;19;20265;-34
2022/08/01 08:42:33;;;;;;;;;;;19.60;99.90;;;;;;4595032;19;19919;-32
2022/08/01 08:44:04;;;;;;;;;;;19.60;99.90;;;;;;4594643;19;19923;-32
2022/08/01 08:45:36;;;;;;;;;;;19.60;99.90;;;;;;4595335;19;19963;-32
2022/08/01 08:47:07;;;;;;;;;;;19.60;99.90;;;;;;4592367;19;19926;-33
2022/08/01 08:48:39;;;;;;;;;;;19.60;99.90;;;;;;4593741;19;20369;-33
2022/08/01 08:50:10;;;;;;;;;;;19.60;99.90;;;;;;4593064;19;19922;-33
2022/08/01 08:51:41;;;;;;;;;;;19.70;99.90;;;;;;4593388;19;19921;-33
2022/08/01 08:53:12;;;;;;;;;;;19.60;99.90;;;;;;4595366;19;19939;-31
2022/08/01 08:54:43;;;;;;;;;;;19.60;99.90;;;;;;4589963;19;20253;-32